Time;durP1;ratioP1;P1;durP2;ratioP2;P2;SDS_P1;SDS_P2;PMS_P1;PMS_P2;Temp;Humidity;BMP_temperature;BMP_pressure;BME280_temperature;BME280_humidity;BME280_pressure;Samples;Min_cycle;Max_cycle;Signal;HPM_P1;HPM_P2
2022/05/10 00:01:47;;;;;;;6.00;3.70;;;;;;;11.27;68.04;102214.03;5010331;28;20261;-72
2022/05/10 00:04:13;;;;;;;5.93;3.77;;;;;;;11.29;67.88;102209.88;5009398;28;20584;-72
2022/05/10 00:06:41;;;;;;;8.63;3.80;;;;;;;11.27;67.08;102207.25;5029873;28;20190;-72
2022/05/10 00:09:08;;;;;;;6.47;3.80;;;;;;;11.23;68.10;102201.91;5038086;28;20190;-72
2022/05/10 00:11:34;;;;;;;6.30;3.53;;;;;;;11.21;67.76;102196.75;5012134;28;20190;-72
2022/05/10 00:14:00;;;;;;;5.53;3.53;;;;;;;11.21;67.50;102201.00;5029646;28;20260;-72
2022/05/10 00:16:25;;;;;;;8.10;3.87;;;;;;;11.17;68.66;102202.56;5029373;28;20190;-72
2022/05/10 00:18:51;;;;;;;7.33;3.60;;;;;;;11.13;68.33;102198.16;5029545;28;20535;-72
2022/05/10 00:21:20;;;;;;;6.07;3.87;;;;;;;11.09;68.49;102195.38;5029192;28;20182;-72
2022/05/10 00:23:46;;;;;;;10.10;4.00;;;;;;;11.06;68.68;102190.16;5016049;28;20227;-73
2022/05/10 00:26:11;;;;;;;8.03;4.20;;;;;;;11.02;68.48;102189.13;5009666;28;20604;-72
2022/05/10 00:28:37;;;;;;;7.97;3.50;;;;;;;11.00;69.37;102189.91;5008714;28;20195;-72
2022/05/10 00:31:02;;;;;;;5.93;3.50;;;;;;;11.01;68.82;102184.84;5009655;28;20191;-72
2022/05/10 00:33:29;;;;;;;5.57;3.53;;;;;;;11.01;68.61;102186.53;5009697;28;20195;-72
2022/05/10 00:35:55;;;;;;;7.50;3.80;;;;;;;10.95;69.25;102176.91;5009916;28;20252;-72
2022/05/10 00:38:28;;;;;;;6.93;3.60;;;;;;;10.94;68.95;102179.41;5007730;28;20199;-72
2022/05/10 00:40:54;;;;;;;5.23;3.80;;;;;;;10.94;69.39;102177.75;5023511;28;20186;-72
2022/05/10 00:43:29;;;;;;;8.93;4.13;;;;;;;10.88;69.07;102180.03;5026993;28;20362;-72
2022/05/10 00:46:21;;;;;;;9.37;3.97;;;;;;;10.87;68.47;102177.44;5034629;28;20189;-72
2022/05/10 00:49:02;;;;;;;5.43;3.70;;;;;;;10.83;69.39;102175.56;5027077;28;20205;-72
2022/05/10 00:51:37;;;;;;;8.07;3.63;;;;;;;10.86;68.70;102179.13;5040026;28;20196;-72
2022/05/10 00:54:13;;;;;;;10.10;4.13;;;;;;;10.82;68.66;102173.78;5047687;28;20240;-72
2022/05/10 00:56:53;;;;;;;5.10;4.40;;;;;;;10.82;69.31;102176.34;5049340;28;20189;-72
2022/05/10 00:59:26;;;;;;;8.07;3.73;;;;;;;10.82;68.84;102166.09;5017119;28;20192;-72
2022/05/10 01:01:58;;;;;;;9.17;3.37;;;;;;;10.77;69.16;102162.50;5034603;28;20308;-72
2022/05/10 01:04:26;;;;;;;7.20;3.93;;;;;;;10.73;69.39;102163.22;5034927;28;20623;-72
2022/05/10 01:06:59;;;;;;;8.87;3.93;;;;;;;10.72;69.87;102152.09;5035639;28;20754;-72
2022/05/10 01:09:33;;;;;;;8.47;3.40;;;;;;;10.72;69.01;102149.53;5041823;28;20247;-72
2022/05/10 01:12:12;;;;;;;8.93;3.80;;;;;;;10.67;69.36;102148.47;5030678;28;20186;-72
2022/05/10 01:14:53;;;;;;;6.83;3.73;;;;;;;10.66;69.50;102143.28;5029353;28;20198;-72
2022/05/10 01:17:21;;;;;;;6.17;3.30;;;;;;;10.65;69.27;102139.81;5030049;28;20684;-72
2022/05/10 01:19:47;;;;;;;8.30;3.80;;;;;;;10.65;69.46;102137.25;5032769;28;20183;-72
2022/05/10 01:22:34;;;;;;;6.67;3.80;;;;;;;10.56;70.52;102130.91;5029278;28;20277;-73
2022/05/10 01:25:12;;;;;;;8.37;3.87;;;;;;;10.50;70.75;102131.53;5042040;28;20845;-72
2022/05/10 01:27:40;;;;;;;7.37;4.00;;;;;;;10.50;69.84;102128.97;5030160;28;20251;-72
2022/05/10 01:30:09;;;;;;;6.37;3.43;;;;;;;10.48;70.31;102129.72;5044260;28;20185;-72
2022/05/10 01:35:45;;;;;;;6.83;4.13;;;;;;;10.48;70.16;102116.94;5047874;28;20197;-72
2022/05/10 01:38:40;;;;;;;7.80;4.00;;;;;;;10.40;71.07;102108.94;5044342;28;20212;-72
2022/05/10 01:41:14;;;;;;;7.77;3.80;;;;;;;10.43;70.74;102108.19;5033148;28;20578;-72
2022/05/10 01:43:47;;;;;;;5.90;3.40;;;;;;;10.46;70.44;102114.31;5031011;28;20296;-72
2022/05/10 01:46:19;;;;;;;8.57;3.93;;;;;;;10.38;70.38;102108.03;5028175;28;20190;-72
2022/05/10 01:48:49;;;;;;;5.37;3.63;;;;;;;10.34;70.65;102092.47;5034664;28;20189;-72
2022/05/10 01:51:22;;;;;;;7.63;4.10;;;;;;;10.34;70.95;102105.25;5036104;28;20247;-72
2022/05/10 01:53:47;;;;;;;7.10;4.27;;;;;;;10.34;70.82;102097.56;5012562;28;20762;-72
2022/05/10 01:56:25;;;;;;;9.80;4.13;;;;;;;10.29;70.88;102092.28;5012158;28;20309;-72
2022/05/10 01:58:52;;;;;;;10.73;4.00;;;;;;;10.30;71.27;102088.03;5014242;28;20190;-72
2022/05/10 02:01:17;;;;;;;9.60;3.93;;;;;;;10.29;71.23;102087.16;5042556;28;20198;-72
2022/05/10 02:03:57;;;;;;;6.17;3.93;;;;;;;10.31;70.63;102089.75;5043436;28;20241;-72
2022/05/10 02:06:34;;;;;;;7.90;4.03;;;;;;;10.29;72.12;102081.16;5051547;28;20232;-72
2022/05/10 02:09:26;;;;;;;8.07;3.80;;;;;;;10.28;71.09;102082.84;5051916;28;20218;-72
2022/05/10 02:11:59;;;;;;;9.17;3.87;;;;;;;10.27;70.88;102081.09;5051554;28;20178;-72
2022/05/10 02:14:37;;;;;;;6.83;3.67;;;;;;;10.26;70.99;102074.25;5038877;28;20727;-72
2022/05/10 02:17:10;;;;;;;7.13;3.70;;;;;;;10.29;70.93;102076.03;5031475;28;20178;-72
2022/05/10 02:19:56;;;;;;;6.33;3.60;;;;;;;10.27;70.76;102078.53;5031633;28;20992;-72
2022/05/10 02:22:30;;;;;;;5.73;3.87;;;;;;;10.27;71.96;102068.28;5031869;28;20185;-72
2022/05/10 02:24:59;;;;;;;5.80;3.47;;;;;;;10.26;70.51;102070.78;5030032;28;20210;-72
2022/05/10 02:27:48;;;;;;;7.23;4.00;;;;;;;10.27;70.58;102065.75;5033231;28;20193;-72
2022/05/10 02:30:18;;;;;;;8.47;4.27;;;;;;;10.19;71.76;102063.69;5028509;28;20260;-72
2022/05/10 02:33:09;;;;;;;7.00;4.20;;;;;;;10.22;71.36;102061.22;5037760;28;20292;-72
2022/05/10 02:35:55;;;;;;;8.07;3.73;;;;;;;10.26;71.02;102058.88;5051029;28;20188;-72
2022/05/10 02:38:33;;;;;;;7.47;3.60;;;;;;;10.24;70.94;102062.19;5050100;28;20192;-72
2022/05/10 02:41:02;;;;;;;6.13;3.63;;;;;;;10.23;71.01;102056.19;5040290;28;20569;-72
2022/05/10 02:43:34;;;;;;;6.37;4.03;;;;;;;10.17;72.26;102044.81;5039086;28;20226;-72
2022/05/10 02:46:00;;;;;;;11.13;4.20;;;;;;;10.17;71.73;102043.16;5038312;28;20198;-72
2022/05/10 02:48:34;;;;;;;6.97;4.30;;;;;;;10.21;71.53;102049.25;5051142;28;20248;-72
2022/05/10 02:50:59;;;;;;;8.37;4.07;;;;;;;10.20;71.22;102040.72;5050978;28;20181;-72
2022/05/10 02:53:26;;;;;;;6.53;4.20;;;;;;;10.16;72.08;102038.84;5050970;28;20202;-72
2022/05/10 02:55:56;;;;;;;6.23;4.13;;;;;;;10.18;71.75;102036.34;5037950;28;20292;-72
2022/05/10 02:58:29;;;;;;;7.90;4.37;;;;;;;10.16;71.95;102032.84;5047845;28;20193;-72
2022/05/10 03:01:03;;;;;;;7.17;4.10;;;;;;;10.05;73.33;102031.56;5051048;28;20240;-72
2022/05/10 03:03:30;;;;;;;7.00;3.97;;;;;;;10.08;72.63;102034.22;5049944;28;20594;-72
2022/05/10 03:05:55;;;;;;;11.70;4.10;;;;;;;10.12;71.74;102033.53;5050873;28;20194;-72
2022/05/10 03:08:22;;;;;;;10.97;4.17;;;;;;;10.13;71.68;102030.19;5044553;28;20193;-72
2022/05/10 03:10:47;;;;;;;4.67;3.67;;;;;;;10.10;71.79;102028.34;5043227;28;20256;-72
2022/05/10 03:13:13;;;;;;;8.40;4.10;;;;;;;10.04;71.94;102030.66;5029183;28;20210;-72
2022/05/10 03:15:39;;;;;;;9.73;4.43;;;;;;;10.09;72.87;102024.03;5030908;28;20182;-72
2022/05/10 03:18:05;;;;;;;7.70;3.97;;;;;;;10.06;73.18;102021.38;5030648;28;20190;-71
2022/05/10 03:20:30;;;;;;;7.40;3.93;;;;;;;10.07;72.88;102012.00;5030263;28;20174;-72
2022/05/10 03:22:55;;;;;;;6.60;4.67;;;;;;;10.11;72.94;102016.44;5033836;28;20214;-72
2022/05/10 03:25:21;;;;;;;8.80;4.50;;;;;;;10.08;73.23;102017.19;5037027;28;20293;-72
2022/05/10 03:27:47;;;;;;;8.43;4.43;;;;;;;10.07;73.00;102012.88;5030554;28;20579;-72
2022/05/10 03:30:13;;;;;;;7.57;4.17;;;;;;;10.05;72.97;102009.38;5032459;28;20240;-72
2022/05/10 03:32:38;;;;;;;8.23;4.50;;;;;;;10.07;73.32;102002.66;5038785;28;20182;-72
2022/05/10 03:35:04;;;;;;;8.20;4.37;;;;;;;10.09;73.27;102001.00;5030167;28;20742;-72
2022/05/10 03:37:30;;;;;;;7.57;4.07;;;;;;;10.14;73.14;102002.06;5029140;28;20265;-72
2022/05/10 03:39:57;;;;;;;6.43;3.87;;;;;;;10.15;73.82;102000.41;5036524;28;20832;-72
2022/05/10 03:42:22;;;;;;;5.57;4.33;;;;;;;10.11;73.86;102004.53;5032404;28;20187;-72
2022/05/10 03:44:49;;;;;;;8.83;4.63;;;;;;;10.13;74.14;102002.03;5030128;28;20712;-72
2022/05/10 03:47:15;;;;;;;6.07;4.23;;;;;;;10.12;73.19;101995.16;5029743;28;20190;-72
2022/05/10 03:49:40;;;;;;;9.27;4.80;;;;;;;10.15;73.98;102000.41;5030051;28;20539;-72
2022/05/10 03:52:06;;;;;;;8.17;4.57;;;;;;;10.20;73.43;101993.78;5029635;28;20187;-72
2022/05/10 03:54:31;;;;;;;8.33;4.40;;;;;;;10.20;74.08;101993.78;5032808;28;20685;-72
2022/05/10 03:56:58;;;;;;;5.80;4.10;;;;;;;10.21;73.32;101985.25;5047833;28;20285;-72
2022/05/10 03:59:23;;;;;;;6.37;4.47;;;;;;;10.29;74.03;101978.75;5047994;28;20189;-72
2022/05/10 04:01:48;;;;;;;9.83;4.27;;;;;;;10.32;74.15;101978.91;5048336;28;20728;-72
2022/05/10 04:04:17;;;;;;;8.33;4.67;;;;;;;10.38;74.30;101984.25;5036921;28;20214;-72
2022/05/10 04:06:43;;;;;;;9.00;4.73;;;;;;;10.45;73.80;101984.53;5034130;28;20536;-72
2022/05/10 04:09:08;;;;;;;6.47;3.83;;;;;;;10.52;73.91;101990.75;5029448;28;20710;-72
2022/05/10 04:11:35;;;;;;;8.20;4.20;;;;;;;10.57;73.15;101986.69;5030053;28;20613;-72
2022/05/10 04:14:00;;;;;;;10.73;4.67;;;;;;;10.67;73.84;101987.09;5029773;28;20202;-72
2022/05/10 04:16:26;;;;;;;10.73;4.57;;;;;;;10.73;72.57;101989.00;5029034;28;20190;-72
2022/05/10 04:18:51;;;;;;;11.77;4.90;;;;;;;10.83;72.09;101986.81;5037374;28;20182;-72
2022/05/10 04:21:17;;;;;;;6.40;4.00;;;;;;;10.92;71.93;101983.75;5029196;28;20609;-73
2022/05/10 04:23:42;;;;;;;9.97;4.27;;;;;;;10.99;72.92;101976.31;5029453;28;20245;-72
2022/05/10 04:26:14;;;;;;;9.13;4.40;;;;;;;11.05;72.98;101979.09;5029180;28;20194;-72
2022/05/10 04:28:41;;;;;;;8.73;4.40;;;;;;;11.13;71.83;101975.13;5029300;28;20225;-72
2022/05/10 04:31:06;;;;;;;6.97;4.50;;;;;;;11.25;71.54;101975.53;5028967;28;20734;-72
2022/05/10 04:33:32;;;;;;;6.50;4.37;;;;;;;11.33;72.25;101973.25;5042760;28;20201;-72
2022/05/10 04:35:57;;;;;;;9.17;4.47;;;;;;;11.41;71.50;101965.00;5029475;28;20320;-72
2022/05/10 04:38:23;;;;;;;7.37;4.23;;;;;;;11.47;71.85;101979.72;5027488;28;20277;-72
2022/05/10 04:43:36;;;;;;;9.03;4.47;;;;;;;11.65;71.15;101970.09;5030099;28;20229;-73
2022/05/10 04:46:01;;;;;;;8.60;4.40;;;;;;;11.74;70.16;101965.25;5039747;28;20659;-73
2022/05/10 04:48:27;;;;;;;8.27;4.57;;;;;;;11.81;70.72;101960.41;5048628;28;20182;-72
2022/05/10 04:50:53;;;;;;;8.80;4.97;;;;;;;11.91;70.02;101964.13;5050012;28;20287;-72
2022/05/10 04:53:18;;;;;;;6.87;4.27;;;;;;;11.98;69.25;101959.22;5052701;28;20293;-72
2022/05/10 04:55:44;;;;;;;7.20;4.53;;;;;;;12.08;69.45;101962.97;5052118;28;20186;-72
2022/05/10 04:58:09;;;;;;;7.30;4.67;;;;;;;12.15;69.27;101963.19;5039037;28;20189;-72
2022/05/10 05:00:34;;;;;;;7.37;4.50;;;;;;;12.22;69.30;101952.25;5047176;28;20182;-72
2022/05/10 05:03:00;;;;;;;7.43;4.47;;;;;;;12.29;69.23;101951.63;5038069;28;20224;-72
2022/05/10 05:05:25;;;;;;;7.40;4.63;;;;;;;12.38;68.98;101959.63;5037088;28;20192;-72
2022/05/10 05:07:51;;;;;;;9.93;4.20;;;;;;;12.48;68.30;101948.78;5033000;28;20200;-72
2022/05/10 05:10:16;;;;;;;8.90;4.70;;;;;;;12.54;68.18;101951.53;5032854;28;20186;-72
2022/05/10 05:12:41;;;;;;;12.47;4.77;;;;;;;12.62;68.27;101947.50;5032126;28;20189;-72
2022/05/10 05:15:10;;;;;;;13.90;5.03;;;;;;;12.74;68.27;101950.41;5033148;28;20186;-72
2022/05/10 05:17:36;;;;;;;9.80;4.77;;;;;;;12.84;68.28;101948.97;5032763;28;20229;-73
2022/05/10 05:20:03;;;;;;;9.30;4.70;;;;;;;12.93;67.74;101941.50;5027451;28;20282;-72
2022/05/10 05:22:28;;;;;;;8.47;4.40;;;;;;;13.03;67.59;101945.25;5034928;28;20186;-72
2022/05/10 05:24:54;;;;;;;18.90;5.57;;;;;;;13.12;67.61;101946.34;5050290;28;20624;-72
2022/05/10 05:27:19;;;;;;;11.70;5.03;;;;;;;13.15;66.62;101942.97;5039939;28;20213;-72
2022/05/10 05:29:46;;;;;;;11.00;4.83;;;;;;;13.20;66.87;101950.00;5019639;28;20587;-73
2022/05/10 05:32:11;;;;;;;9.57;4.57;;;;;;;13.34;66.54;101948.66;5012507;28;20249;-72
2022/05/10 05:34:37;;;;;;;11.80;5.03;;;;;;;13.38;66.41;101950.47;5011687;28;20202;-72
2022/05/10 05:39:47;;;;;;;11.43;4.63;;;;;;;13.53;65.80;101942.28;5026142;28;20198;-75
2022/05/10 05:42:13;;;;;;;12.43;5.17;;;;;;;13.61;66.25;101941.63;5029099;28;20236;-74
2022/05/10 05:44:38;;;;;;;11.90;4.90;;;;;;;13.66;66.10;101939.16;5023479;28;20305;-74
2022/05/10 05:47:03;;;;;;;7.97;4.43;;;;;;;13.76;66.00;101938.56;5030715;28;20559;-74
2022/05/10 05:49:29;;;;;;;10.80;5.00;;;;;;;13.84;66.07;101934.44;5031970;28;20195;-74
2022/05/10 05:51:59;;;;;;;9.00;4.60;;;;;;;13.87;65.98;101943.16;5032636;28;20229;-74
2022/05/10 05:54:25;;;;;;;11.53;4.70;;;;;;;13.91;66.26;101941.50;5032447;28;20232;-73
2022/05/10 05:56:58;;;;;;;7.90;4.60;;;;;;;13.96;65.83;101937.34;5038599;28;20197;-74
2022/05/10 05:59:24;;;;;;;11.43;5.60;;;;;;;14.05;65.91;101938.38;5047993;28;20185;-74
2022/05/10 06:01:49;;;;;;;13.17;5.30;;;;;;;14.13;65.33;101930.88;5051760;28;20726;-74
2022/05/10 06:04:15;;;;;;;11.77;4.93;;;;;;;14.31;65.71;101936.47;5016656;28;20223;-74
2022/05/10 06:06:40;;;;;;;8.00;4.67;;;;;;;14.44;64.68;101931.59;5012000;28;20255;-75
2022/05/10 06:09:06;;;;;;;10.33;5.30;;;;;;;14.58;65.50;101929.28;5012220;28;20193;-74
2022/05/10 06:11:31;;;;;;;9.13;4.93;;;;;;;14.68;65.50;101921.78;5011848;28;20187;-73
2022/05/10 06:13:56;;;;;;;12.77;5.07;;;;;;;14.74;64.57;101921.03;5012558;28;20294;-74
2022/05/10 06:16:22;;;;;;;9.13;4.40;;;;;;;14.82;63.93;101917.75;5029677;28;20201;-73
2022/05/10 06:18:47;;;;;;;10.17;4.70;;;;;;;14.82;63.74;101920.34;5027399;28;20213;-73
2022/05/10 06:21:12;;;;;;;7.67;4.77;;;;;;;14.92;63.68;101918.81;5011604;28;20194;-73
2022/05/10 06:23:38;;;;;;;7.10;4.80;;;;;;;14.99;63.62;101916.38;5009682;28;20283;-73
2022/05/10 06:26:03;;;;;;;7.80;4.80;;;;;;;15.16;63.48;101909.81;5012093;28;20277;-73
2022/05/10 06:28:29;;;;;;;8.47;4.70;;;;;;;15.29;63.38;101901.44;5010859;28;20191;-73
2022/05/10 06:30:56;;;;;;;8.50;4.80;;;;;;;15.40;63.37;101910.28;5011478;28;20231;-73
2022/05/10 06:33:21;;;;;;;13.77;4.97;;;;;;;15.60;63.00;101900.25;5011989;28;20195;-73
2022/05/10 06:35:47;;;;;;;10.07;5.20;;;;;;;15.68;62.65;101899.56;5011680;28;20198;-73
2022/05/10 06:38:28;;;;;;;9.50;5.13;;;;;;;16.04;62.11;101899.22;5012283;28;20194;-73
2022/05/10 06:40:55;;;;;;;9.40;5.33;;;;;;;16.32;61.46;101896.16;5011442;28;20941;-73
2022/05/10 06:43:21;;;;;;;10.50;5.00;;;;;;;16.46;61.01;101884.31;5011441;28;20219;-74
2022/05/10 06:45:50;;;;;;;11.43;5.00;;;;;;;16.48;61.18;101877.47;5009623;28;20811;-73
2022/05/10 06:48:16;;;;;;;8.20;5.00;;;;;;;16.71;61.01;101876.84;5011294;28;20187;-73
2022/05/10 06:50:42;;;;;;;8.60;4.97;;;;;;;16.82;60.01;101867.50;5010932;28;20296;-73
2022/05/10 06:53:09;;;;;;;9.47;4.70;;;;;;;17.06;60.05;101867.75;5042414;28;20211;-73
2022/05/10 06:55:36;;;;;;;15.30;5.17;;;;;;;17.14;60.72;101860.88;5049417;28;20201;-73
2022/05/10 06:58:03;;;;;;;10.33;4.67;;;;;;;17.37;59.77;101874.06;5050193;28;20188;-73
2022/05/10 07:00:30;;;;;;;11.03;4.80;;;;;;;17.81;59.86;101864.91;5051004;28;20193;-74
2022/05/10 07:02:56;;;;;;;7.63;4.50;;;;;;;17.90;58.89;101857.19;5049473;28;20679;-74
2022/05/10 07:05:22;;;;;;;7.17;4.60;;;;;;;18.00;59.53;101856.41;5049504;28;20189;-74
2022/05/10 07:07:48;;;;;;;6.33;4.23;;;;;;;18.03;59.39;101859.00;5050451;28;20674;-73
2022/05/10 07:10:17;;;;;;;8.83;5.00;;;;;;;18.48;58.46;101844.56;5047150;28;20255;-73
2022/05/10 07:12:44;;;;;;;6.63;4.60;;;;;;;18.67;57.80;101843.75;5009792;28;20207;-74
2022/05/10 07:15:16;;;;;;;8.63;4.43;;;;;;;18.67;57.82;101833.34;5009722;28;20271;-74
2022/05/10 07:17:44;;;;;;;9.13;4.80;;;;;;;18.78;57.55;101834.22;5011075;28;20266;-74
2022/05/10 07:20:11;;;;;;;6.43;4.27;;;;;;;18.92;57.24;101834.25;5010281;28;20273;-74
2022/05/10 07:22:37;;;;;;;8.87;4.23;;;;;;;19.02;56.85;101836.00;5017550;28;20186;-74
2022/05/10 07:25:04;;;;;;;6.00;4.50;;;;;;;19.14;56.46;101828.22;5038866;28;20208;-75
2022/05/10 07:27:30;;;;;;;4.93;3.93;;;;;;;19.50;55.52;101826.50;5046234;28;20721;-74
2022/05/10 07:29:55;;;;;;;6.97;4.13;;;;;;;19.64;53.55;101835.16;5043874;28;20459;-74
2022/05/10 07:32:22;;;;;;;5.73;3.97;;;;;;;19.65;53.96;101829.09;5050435;28;20196;-74
2022/05/10 07:34:48;;;;;;;6.10;3.83;;;;;;;19.74;53.77;101829.06;5050540;28;20209;-76
2022/05/10 07:37:14;;;;;;;8.53;4.30;;;;;;;19.56;53.72;101820.41;5049931;28;20190;-75
2022/05/10 07:39:40;;;;;;;6.73;3.90;;;;;;;19.90;53.81;101827.31;5050229;28;20223;-75
2022/05/10 07:42:06;;;;;;;7.23;3.77;;;;;;;20.28;52.96;101830.66;5036037;28;20214;-75
2022/05/10 07:44:33;;;;;;;7.10;3.83;;;;;;;20.53;52.00;101825.31;5029721;28;20271;-76
2022/05/10 07:46:58;;;;;;;6.83;4.03;;;;;;;20.85;51.98;101818.19;5030088;28;20252;-76
2022/05/10 07:49:24;;;;;;;7.10;4.00;;;;;;;21.23;50.58;101808.34;5030292;28;20183;-76
2022/05/10 07:51:49;;;;;;;5.40;3.60;;;;;;;21.34;51.07;101809.13;5016814;28;20656;-76
2022/05/10 07:54:14;;;;;;;6.00;3.73;;;;;;;21.51;51.85;101809.81;5034031;28;20212;-75
2022/05/10 07:56:41;;;;;;;6.50;3.67;;;;;;;21.40;50.12;101809.06;5050148;28;20216;-75
2022/05/10 07:59:07;;;;;;;4.80;3.60;;;;;;;21.53;49.89;101812.41;5049374;28;20611;-75
2022/05/10 08:01:33;;;;;;;8.00;3.70;;;;;;;21.60;48.76;101804.53;5042966;28;20198;-75
2022/05/10 08:03:58;;;;;;;6.83;4.13;;;;;;;21.52;49.01;101805.47;5009817;28;20235;-75
2022/05/10 08:06:25;;;;;;;5.77;4.20;;;;;;;21.69;49.00;101795.78;5010225;28;20189;-75
2022/05/10 08:08:51;;;;;;;7.13;3.90;;;;;;;21.84;47.50;101801.66;5008240;28;20260;-75
2022/05/10 08:11:16;;;;;;;6.73;4.10;;;;;;;21.91;47.74;101794.66;5009685;28;20183;-75
2022/05/10 08:13:42;;;;;;;5.27;3.60;;;;;;;22.20;47.26;101803.00;5010200;28;20677;-76
2022/05/10 08:16:11;;;;;;;5.80;3.67;;;;;;;22.12;46.83;101791.78;5008479;28;20187;-75
2022/05/10 08:18:39;;;;;;;6.87;4.00;;;;;;;22.48;46.44;101786.13;5033920;28;20557;-76
2022/05/10 08:21:05;;;;;;;5.87;3.90;;;;;;;22.56;46.89;101786.00;5029347;28;20209;-75
2022/05/10 08:23:32;;;;;;;6.37;4.30;;;;;;;22.33;46.17;101789.75;5029461;28;20961;-75
2022/05/10 08:25:59;;;;;;;6.90;4.53;;;;;;;22.37;46.34;101787.13;5028672;28;20194;-76
2022/05/10 08:28:28;;;;;;;5.93;3.87;;;;;;;22.67;46.80;101789.31;5028162;28;20194;-75
2022/05/10 08:30:54;;;;;;;5.47;4.37;;;;;;;22.71;46.47;101783.16;5029294;28;20190;-74
2022/05/10 08:33:23;;;;;;;7.73;4.27;;;;;;;22.60;46.08;101783.31;5029391;28;20569;-74
2022/05/10 08:35:55;;;;;;;7.93;4.17;;;;;;;22.91;46.12;101786.31;5022931;28;20238;-76
2022/05/10 08:38:23;;;;;;;7.87;4.10;;;;;;;23.01;45.43;101777.47;4990878;28;20660;-76
2022/05/10 08:41:09;;;;;;;5.43;4.33;;;;;;;22.97;46.14;101773.16;5009721;28;20183;-76
2022/05/10 08:43:51;;;;;;;4.97;4.37;;;;;;;23.01;46.25;101773.09;5008973;28;20771;-75
2022/05/10 08:46:21;;;;;;;9.53;4.23;;;;;;;23.00;46.67;101768.75;5009726;28;20707;-74
2022/05/10 08:48:50;;;;;;;5.93;4.87;;;;;;;22.90;46.02;101772.41;5011279;28;20259;-74
2022/05/10 08:51:16;;;;;;;6.90;4.20;;;;;;;23.29;45.75;101774.38;5032412;28;20201;-74
2022/05/10 08:53:42;;;;;;;6.20;4.50;;;;;;;23.50;44.99;101762.66;5038786;28;20210;-74
2022/05/10 08:56:27;;;;;;;8.10;4.47;;;;;;;23.58;45.11;101763.38;5033931;28;20597;-75
2022/05/10 08:59:09;;;;;;;5.93;4.30;;;;;;;23.72;44.44;101763.97;5029254;28;20639;-75
2022/05/10 09:01:43;;;;;;;6.53;4.60;;;;;;;23.66;44.86;101762.34;5029867;28;20209;-76
2022/05/10 09:04:40;;;;;;;6.03;4.77;;;;;;;23.94;44.11;101753.06;5029576;28;20301;-76
2022/05/10 09:07:18;;;;;;;8.30;4.83;;;;;;;23.79;44.33;101752.47;5029423;28;20193;-76
2022/05/10 09:10:12;;;;;;;5.70;4.60;;;;;;;24.27;44.54;101748.88;5033859;28;20926;-76
2022/05/10 09:12:58;;;;;;;9.83;4.37;;;;;;;24.12;44.18;101744.81;5028919;28;20194;-76
2022/05/10 09:15:27;;;;;;;5.93;4.67;;;;;;;23.83;43.98;101747.16;5031698;28;20727;-76
2022/05/10 09:17:52;;;;;;;6.93;4.90;;;;;;;23.97;44.69;101739.94;5048859;28;20186;-76
2022/05/10 09:20:17;;;;;;;6.43;4.13;;;;;;;23.88;44.58;101741.81;5049039;28;20189;-76
2022/05/10 09:23:20;;;;;;;6.67;4.33;;;;;;;23.91;44.80;101747.91;5048558;28;20186;-76
2022/05/10 09:25:46;;;;;;;6.33;4.50;;;;;;;24.52;44.07;101735.19;5049093;28;20197;-76
2022/05/10 09:28:20;;;;;;;7.23;4.20;;;;;;;24.81;43.22;101731.91;5028937;28;20248;-76
2022/05/10 09:36:24;;;;;;;5.63;4.00;;;;;;;25.27;40.96;101722.84;5048938;28;20181;-75
2022/05/10 09:38:51;;;;;;;8.25;4.70;;;;;;;25.70;40.11;101719.91;5050335;28;20185;-75
2022/05/10 09:41:31;;;;;;;5.88;4.00;;;;;;;25.97;40.10;101714.72;5052536;28;20718;-76
2022/05/10 09:43:57;;;;;;;7.57;4.40;;;;;;;26.82;38.63;101705.00;5037088;28;20231;-74
2022/05/10 09:46:29;;;;;;;6.72;3.75;;;;;;;27.06;37.33;101697.16;5011682;28;20235;-74
2022/05/10 09:48:55;;;;;;;7.57;4.13;;;;;;;26.96;37.22;101706.28;5030547;28;20528;-75
2022/05/10 09:51:41;;;;;;;7.93;3.92;;;;;;;26.13;38.53;101704.63;5023311;28;20195;-76
2022/05/10 09:54:25;;;;;;;5.18;4.03;;;;;;;26.28;37.89;101696.25;5026437;28;20217;-75
2022/05/10 09:56:56;;;;;;;7.50;4.25;;;;;;;26.79;37.48;101694.59;5030336;28;20192;-74
2022/05/10 09:59:21;;;;;;;4.50;3.58;;;;;;;26.59;37.69;101689.16;5032002;28;20214;-75
2022/05/10 10:01:49;;;;;;;6.25;4.18;;;;;;;26.09;38.40;101695.09;5030606;28;20630;-74
2022/05/10 10:04:20;;;;;;;4.05;3.60;;;;;;;26.07;38.96;101689.06;5031874;28;20222;-74
2022/05/10 10:07:03;;;;;;;5.00;4.25;;;;;;;25.67;38.33;101691.97;5031458;28;20203;-74
2022/05/10 10:09:34;;;;;;;4.95;3.72;;;;;;;26.25;38.77;101681.44;5031488;28;20191;-74
2022/05/10 10:12:01;;;;;;;6.22;3.88;;;;;;;25.88;38.61;101666.84;5031567;28;20178;-74
2022/05/10 10:14:38;;;;;;;4.97;3.90;;;;;;;26.43;38.52;101672.97;5031701;28;20206;-74
2022/05/10 10:17:04;;;;;;;7.28;3.92;;;;;;;27.23;37.80;101668.53;5031866;28;20217;-74
2022/05/10 10:19:43;;;;;;;4.90;3.80;;;;;;;27.57;38.28;101657.59;5030178;28;20759;-75
2022/05/10 10:22:27;;;;;;;7.32;4.22;;;;;;;26.36;38.13;101660.09;5031689;28;20205;-74
2022/05/10 10:25:04;;;;;;;5.25;4.25;;;;;;;26.41;37.72;101660.81;5031800;28;20234;-75
2022/05/10 10:27:38;;;;;;;7.22;4.28;;;;;;;26.98;37.06;101657.09;5030274;28;20186;-75
2022/05/10 10:30:06;;;;;;;6.65;4.20;;;;;;;26.72;37.25;101653.66;5031164;28;20807;-75
2022/05/10 10:32:38;;;;;;;6.72;4.47;;;;;;;27.08;36.34;101642.72;5031358;28;20198;-75
2022/05/10 10:35:20;;;;;;;9.63;4.55;;;;;;;26.36;37.16;101649.59;5023879;28;20256;-75
2022/05/10 10:37:55;;;;;;;6.57;4.47;;;;;;;26.62;37.49;101653.09;5010492;28;20237;-75
2022/05/10 10:40:34;;;;;;;7.25;4.68;;;;;;;26.76;36.89;101648.22;5025134;28;20295;-75
2022/05/10 10:43:21;;;;;;;9.65;4.38;;;;;;;26.43;37.12;101646.69;5030722;28;20206;-75
2022/05/10 10:45:51;;;;;;;9.68;4.22;;;;;;;26.47;36.79;101631.72;5031255;28;20215;-74
2022/05/10 10:48:46;;;;;;;9.25;4.70;;;;;;;25.84;37.73;101629.31;5021025;28;20724;-74
2022/05/10 10:51:12;;;;;;;5.32;4.20;;;;;;;26.38;37.94;101630.22;5028312;28;20190;-74
2022/05/10 10:53:39;;;;;;;4.68;3.88;;;;;;;26.33;37.29;101623.44;5041504;28;20198;-75
2022/05/10 10:56:22;;;;;;;6.65;4.60;;;;;;;26.69;36.80;101612.56;5051005;28;20190;-74
2022/05/10 10:58:57;;;;;;;7.53;4.60;;;;;;;26.84;37.14;101619.06;5035355;28;20245;-74
2022/05/10 11:01:41;;;;;;;8.43;3.97;;;;;;;27.23;36.43;101602.75;5030998;28;20663;-73
2022/05/10 11:04:45;;;;;;;11.60;4.60;;;;;;;26.88;36.55;101599.63;5030382;28;20717;-73
2022/05/10 11:07:38;;;;;;;12.50;4.47;;;;;;;27.43;35.91;101600.22;5030628;28;20248;-73
2022/05/10 11:10:22;;;;;;;9.07;4.20;;;;;;;26.98;36.44;101606.28;5014299;28;20210;-73
2022/05/10 11:13:29;;;;;;;6.80;3.85;;;;;;;26.77;37.15;101609.66;5011211;28;20183;-73
2022/05/10 11:16:09;;;;;;;6.70;3.63;;;;;;;26.94;35.93;101597.63;5010846;28;20294;-73
2022/05/10 11:18:53;;;;;;;6.40;4.00;;;;;;;26.99;35.88;101606.22;5023115;28;20208;-75
2022/05/10 11:21:47;;;;;;;22.33;5.25;;;;;;;26.66;36.18;101588.16;5029656;28;20218;-75
2022/05/10 11:24:15;;;;;;;10.25;3.65;;;;;;;26.50;36.31;101600.06;5029179;28;20241;-75
2022/05/10 11:26:51;;;;;;;4.97;3.88;;;;;;;26.46;36.55;101593.19;5029377;28;20596;-75
2022/05/10 11:29:53;;;;;;;6.13;3.60;;;;;;;26.50;36.77;101589.53;5030463;28;20205;-75
2022/05/10 11:32:48;;;;;;;8.32;4.13;;;;;;;26.26;36.64;101586.00;5027964;28;20723;-75
2022/05/10 11:35:29;;;;;;;5.55;4.00;;;;;;;25.92;37.51;101593.22;5027255;28;20307;-75
2022/05/10 11:38:02;;;;;;;4.80;4.28;;;;;;;26.32;37.10;101585.78;5023724;28;20675;-75
2022/05/10 11:40:51;;;;;;;7.40;3.90;;;;;;;26.30;36.87;101568.34;5028975;28;20309;-75
2022/05/10 11:43:44;;;;;;;5.85;4.00;;;;;;;27.07;35.22;101569.97;5031027;28;20242;-75
2022/05/10 11:46:44;;;;;;;6.30;4.15;;;;;;;26.98;36.29;101561.56;5010453;28;20899;-75
2022/05/10 11:49:37;;;;;;;6.68;4.20;;;;;;;27.17;35.24;101552.94;5010346;28;20175;-75
2022/05/10 11:52:24;;;;;;;5.60;3.70;;;;;;;27.22;34.43;101545.75;5025539;28;20194;-76
2022/05/10 11:55:05;;;;;;;4.50;3.35;;;;;;;27.57;35.14;101537.38;5030453;28;20290;-76
2022/05/10 11:57:33;;;;;;;7.00;3.38;;;;;;;26.95;35.18;101546.78;5030116;28;20187;-75